sensor_id;sensor_type;location;lat;lon;timestamp;pressure;altitude;pressure_sealevel;temperature;humidity
40788;BME280;26497;52.494;7.546;2022-09-28T00:01:48;98905.41;;;13.80;69.52
40788;BME280;26497;52.494;7.546;2022-09-28T00:04:15;98909.78;;;13.81;69.60
40788;BME280;26497;52.494;7.546;2022-09-28T00:06:43;98901.97;;;13.78;69.72
40788;BME280;26497;52.494;7.546;2022-09-28T00:09:10;98900.38;;;13.74;70.05
40788;BME280;26497;52.494;7.546;2022-09-28T00:11:37;98893.41;;;13.71;70.50
40788;BME280;26497;52.494;7.546;2022-09-28T00:14:05;98892.59;;;13.69;71.05
40788;BME280;26497;52.494;7.546;2022-09-28T00:16:34;98900.63;;;13.68;71.37
40788;BME280;26497;52.494;7.546;2022-09-28T00:19:03;98896.47;;;13.83;70.96
40788;BME280;26497;52.494;7.546;2022-09-28T00:21:34;98887.25;;;13.92;70.71
40788;BME280;26497;52.494;7.546;2022-09-28T00:24:04;98889.44;;;13.82;70.79
40788;BME280;26497;52.494;7.546;2022-09-28T00:26:45;98889.50;;;13.80;70.79
40788;BME280;26497;52.494;7.546;2022-09-28T00:29:19;98884.81;;;13.87;70.70
40788;BME280;26497;52.494;7.546;2022-09-28T00:31:46;98886.53;;;13.88;70.46
40788;BME280;26497;52.494;7.546;2022-09-28T00:34:15;98885.38;;;13.94;70.29
40788;BME280;26497;52.494;7.546;2022-09-28T00:36:44;98876.38;;;13.98;70.19
40788;BME280;26497;52.494;7.546;2022-09-28T00:39:13;98884.19;;;14.01;70.20
40788;BME280;26497;52.494;7.546;2022-09-28T00:41:41;98871.75;;;14.03;69.93
40788;BME280;26497;52.494;7.546;2022-09-28T00:44:39;98876.00;;;14.07;69.67
40788;BME280;26497;52.494;7.546;2022-09-28T00:47:18;98871.03;;;13.99;69.70
40788;BME280;26497;52.494;7.546;2022-09-28T00:49:51;98867.72;;;13.94;69.77
40788;BME280;26497;52.494;7.546;2022-09-28T00:52:26;98865.59;;;13.82;70.05
40788;BME280;26497;52.494;7.546;2022-09-28T00:54:54;98863.06;;;13.79;70.00
40788;BME280;26497;52.494;7.546;2022-09-28T00:57:22;98858.66;;;13.79;69.95
40788;BME280;26497;52.494;7.546;2022-09-28T00:59:51;98862.09;;;13.81;70.10
40788;BME280;26497;52.494;7.546;2022-09-28T01:02:19;98862.16;;;13.80;69.70
40788;BME280;26497;52.494;7.546;2022-09-28T01:04:48;98853.34;;;13.79;69.70
40788;BME280;26497;52.494;7.546;2022-09-28T01:07:17;98854.41;;;13.75;69.90
40788;BME280;26497;52.494;7.546;2022-09-28T01:09:44;98850.84;;;13.76;69.64
40788;BME280;26497;52.494;7.546;2022-09-28T01:12:12;98841.06;;;13.77;69.55
40788;BME280;26497;52.494;7.546;2022-09-28T01:14:40;98842.00;;;13.76;69.51
40788;BME280;26497;52.494;7.546;2022-09-28T01:17:14;98845.66;;;13.73;69.49
40788;BME280;26497;52.494;7.546;2022-09-28T01:20:41;98851.63;;;13.78;69.44
40788;BME280;26497;52.494;7.546;2022-09-28T01:23:53;98854.19;;;13.80;69.36
40788;BME280;26497;52.494;7.546;2022-09-28T01:26:55;98849.81;;;13.79;69.66
40788;BME280;26497;52.494;7.546;2022-09-28T01:29:35;98845.53;;;13.76;70.04
40788;BME280;26497;52.494;7.546;2022-09-28T01:32:14;98848.19;;;13.76;70.11
40788;BME280;26497;52.494;7.546;2022-09-28T01:34:47;98842.66;;;13.81;70.00
40788;BME280;26497;52.494;7.546;2022-09-28T01:37:22;98847.78;;;13.85;69.88
40788;BME280;26497;52.494;7.546;2022-09-28T01:39:53;98848.47;;;13.91;69.58
40788;BME280;26497;52.494;7.546;2022-09-28T01:42:28;98840.91;;;13.81;70.06
40788;BME280;26497;52.494;7.546;2022-09-28T01:45:04;98849.44;;;13.88;69.96
40788;BME280;26497;52.494;7.546;2022-09-28T01:47:36;98842.19;;;13.92;69.85
40788;BME280;26497;52.494;7.546;2022-09-28T01:50:08;98840.34;;;13.94;69.99
40788;BME280;26497;52.494;7.546;2022-09-28T01:52:44;98842.94;;;13.95;69.94
40788;BME280;26497;52.494;7.546;2022-09-28T01:55:22;98831.34;;;13.98;69.70
40788;BME280;26497;52.494;7.546;2022-09-28T01:57:55;98835.91;;;13.94;70.01
40788;BME280;26497;52.494;7.546;2022-09-28T02:00:24;98834.25;;;13.92;69.81
40788;BME280;26497;52.494;7.546;2022-09-28T02:02:57;98839.50;;;13.93;69.61
40788;BME280;26497;52.494;7.546;2022-09-28T02:05:31;98829.91;;;13.91;69.78
40788;BME280;26497;52.494;7.546;2022-09-28T02:08:04;98829.09;;;13.89;69.65
40788;BME280;26497;52.494;7.546;2022-09-28T02:10:38;98826.72;;;13.82;69.88
40788;BME280;26497;52.494;7.546;2022-09-28T02:13:13;98817.91;;;13.82;69.88
40788;BME280;26497;52.494;7.546;2022-09-28T02:15:48;98824.22;;;13.79;69.94
40788;BME280;26497;52.494;7.546;2022-09-28T02:18:17;98823.94;;;13.85;69.58
40788;BME280;26497;52.494;7.546;2022-09-28T02:20:51;98825.81;;;13.83;69.70
40788;BME280;26497;52.494;7.546;2022-09-28T02:23:21;98815.19;;;13.83;69.63
40788;BME280;26497;52.494;7.546;2022-09-28T02:25:54;98830.31;;;13.81;69.65
40788;BME280;26497;52.494;7.546;2022-09-28T02:28:27;98825.97;;;13.79;69.56
40788;BME280;26497;52.494;7.546;2022-09-28T02:30:55;98829.56;;;13.78;69.62
40788;BME280;26497;52.494;7.546;2022-09-28T02:33:28;98827.00;;;13.76;70.00
40788;BME280;26497;52.494;7.546;2022-09-28T02:35:57;98831.50;;;13.74;69.73
40788;BME280;26497;52.494;7.546;2022-09-28T02:38:26;98831.34;;;13.77;69.54
40788;BME280;26497;52.494;7.546;2022-09-28T02:41:02;98834.81;;;13.79;69.42
40788;BME280;26497;52.494;7.546;2022-09-28T02:43:44;98827.66;;;13.81;69.35
40788;BME280;26497;52.494;7.546;2022-09-28T02:46:26;98832.22;;;13.78;69.53
40788;BME280;26497;52.494;7.546;2022-09-28T02:49:10;98840.22;;;13.76;69.62
40788;BME280;26497;52.494;7.546;2022-09-28T02:51:52;98830.34;;;13.80;69.48
40788;BME280;26497;52.494;7.546;2022-09-28T02:54:40;98833.88;;;13.80;69.38
40788;BME280;26497;52.494;7.546;2022-09-28T02:57:25;98831.34;;;13.77;69.42
40788;BME280;26497;52.494;7.546;2022-09-28T03:00:05;98830.31;;;13.81;69.28
40788;BME280;26497;52.494;7.546;2022-09-28T03:02:40;98831.22;;;13.80;69.32
40788;BME280;26497;52.494;7.546;2022-09-28T03:05:17;98832.22;;;13.78;69.36
40788;BME280;26497;52.494;7.546;2022-09-28T03:07:53;98831.41;;;13.76;69.40
40788;BME280;26497;52.494;7.546;2022-09-28T03:10:29;98838.38;;;13.78;69.55
40788;BME280;26497;52.494;7.546;2022-09-28T03:12:59;98841.69;;;13.83;69.37
40788;BME280;26497;52.494;7.546;2022-09-28T03:15:30;98831.53;;;13.73;69.68
40788;BME280;26497;52.494;7.546;2022-09-28T03:17:58;98836.91;;;13.71;69.96
40788;BME280;26497;52.494;7.546;2022-09-28T03:20:26;98840.41;;;13.71;69.87
40788;BME280;26497;52.494;7.546;2022-09-28T03:22:54;98837.97;;;13.67;70.13
40788;BME280;26497;52.494;7.546;2022-09-28T03:25:21;98831.22;;;13.60;70.25
40788;BME280;26497;52.494;7.546;2022-09-28T03:27:48;98827.50;;;13.64;70.02
40788;BME280;26497;52.494;7.546;2022-09-28T03:30:15;98835.28;;;13.46;71.02
40788;BME280;26497;52.494;7.546;2022-09-28T03:32:44;98832.44;;;13.51;71.05
40788;BME280;26497;52.494;7.546;2022-09-28T03:35:11;98830.47;;;13.56;70.73
40788;BME280;26497;52.494;7.546;2022-09-28T03:37:38;98831.25;;;13.58;70.62
40788;BME280;26497;52.494;7.546;2022-09-28T03:40:06;98827.97;;;13.74;70.47
40788;BME280;26497;52.494;7.546;2022-09-28T03:42:35;98829.94;;;13.68;70.44
40788;BME280;26497;52.494;7.546;2022-09-28T03:45:04;98831.22;;;13.60;70.71
40788;BME280;26497;52.494;7.546;2022-09-28T03:47:32;98836.56;;;13.58;70.79
40788;BME280;26497;52.494;7.546;2022-09-28T03:50:00;98825.91;;;13.60;70.59
40788;BME280;26497;52.494;7.546;2022-09-28T03:52:27;98823.28;;;13.60;70.61
40788;BME280;26497;52.494;7.546;2022-09-28T03:54:54;98821.84;;;13.51;70.75
40788;BME280;26497;52.494;7.546;2022-09-28T03:57:21;98821.72;;;13.54;70.61
40788;BME280;26497;52.494;7.546;2022-09-28T03:59:48;98822.78;;;13.50;70.89
40788;BME280;26497;52.494;7.546;2022-09-28T04:02:16;98833.69;;;13.42;71.17
40788;BME280;26497;52.494;7.546;2022-09-28T04:04:43;98828.94;;;13.50;70.99
40788;BME280;26497;52.494;7.546;2022-09-28T04:07:12;98831.22;;;13.60;70.76
40788;BME280;26497;52.494;7.546;2022-09-28T04:09:39;98829.22;;;13.65;70.74
40788;BME280;26497;52.494;7.546;2022-09-28T04:12:06;98831.41;;;13.76;70.65
40788;BME280;26497;52.494;7.546;2022-09-28T04:14:33;98829.28;;;13.84;70.29
40788;BME280;26497;52.494;7.546;2022-09-28T04:17:00;98831.00;;;13.85;70.61
40788;BME280;26497;52.494;7.546;2022-09-28T04:19:27;98837.06;;;13.89;70.34
40788;BME280;26497;52.494;7.546;2022-09-28T04:21:54;98826.38;;;13.90;70.45
40788;BME280;26497;52.494;7.546;2022-09-28T04:24:23;98829.81;;;13.92;70.42
40788;BME280;26497;52.494;7.546;2022-09-28T04:26:50;98822.72;;;13.93;70.68
40788;BME280;26497;52.494;7.546;2022-09-28T04:29:37;98833.28;;;13.94;70.28
40788;BME280;26497;52.494;7.546;2022-09-28T04:32:03;98828.19;;;13.90;70.61
40788;BME280;26497;52.494;7.546;2022-09-28T04:34:31;98830.31;;;13.81;70.94
40788;BME280;26497;52.494;7.546;2022-09-28T04:36:59;98836.56;;;13.79;71.03
40788;BME280;26497;52.494;7.546;2022-09-28T04:39:27;98830.75;;;13.91;70.79
40788;BME280;26497;52.494;7.546;2022-09-28T04:41:54;98827.03;;;13.75;71.06
40788;BME280;26497;52.494;7.546;2022-09-28T04:44:21;98836.25;;;13.86;70.71
40788;BME280;26497;52.494;7.546;2022-09-28T04:46:48;98832.28;;;13.76;70.88
40788;BME280;26497;52.494;7.546;2022-09-28T04:49:15;98837.97;;;13.67;71.47
40788;BME280;26497;52.494;7.546;2022-09-28T04:51:42;98837.59;;;13.76;71.33
40788;BME280;26497;52.494;7.546;2022-09-28T04:54:10;98841.44;;;13.90;70.89
40788;BME280;26497;52.494;7.546;2022-09-28T04:56:38;98842.06;;;13.95;70.82
40788;BME280;26497;52.494;7.546;2022-09-28T04:59:06;98834.31;;;13.90;70.60
40788;BME280;26497;52.494;7.546;2022-09-28T05:01:34;98843.69;;;13.78;70.83
40788;BME280;26497;52.494;7.546;2022-09-28T05:04:01;98846.69;;;13.48;71.99
40788;BME280;26497;52.494;7.546;2022-09-28T05:06:28;98838.41;;;13.56;71.98
40788;BME280;26497;52.494;7.546;2022-09-28T05:08:55;98842.00;;;13.76;71.38
40788;BME280;26497;52.494;7.546;2022-09-28T05:11:22;98838.91;;;13.86;71.03
40788;BME280;26497;52.494;7.546;2022-09-28T05:13:51;98834.31;;;13.90;70.92
40788;BME280;26497;52.494;7.546;2022-09-28T05:16:18;98843.19;;;13.89;71.20
40788;BME280;26497;52.494;7.546;2022-09-28T05:18:46;98837.84;;;13.91;70.93
40788;BME280;26497;52.494;7.546;2022-09-28T05:21:15;98845.25;;;14.03;70.49
40788;BME280;26497;52.494;7.546;2022-09-28T05:23:46;98844.94;;;14.11;70.12
40788;BME280;26497;52.494;7.546;2022-09-28T05:26:13;98842.28;;;14.11;70.39
40788;BME280;26497;52.494;7.546;2022-09-28T05:28:40;98842.31;;;14.09;70.26
40788;BME280;26497;52.494;7.546;2022-09-28T05:31:09;98845.78;;;14.11;70.45
40788;BME280;26497;52.494;7.546;2022-09-28T05:33:36;98843.88;;;14.15;70.22
40788;BME280;26497;52.494;7.546;2022-09-28T05:36:03;98841.22;;;14.15;70.15
40788;BME280;26497;52.494;7.546;2022-09-28T05:38:30;98839.63;;;14.11;70.31
40788;BME280;26497;52.494;7.546;2022-09-28T05:40:57;98843.91;;;14.13;70.04
40788;BME280;26497;52.494;7.546;2022-09-28T05:43:24;98842.19;;;14.12;70.07
40788;BME280;26497;52.494;7.546;2022-09-28T05:45:52;98843.25;;;14.08;70.27
40788;BME280;26497;52.494;7.546;2022-09-28T05:48:20;98848.41;;;14.11;70.29
40788;BME280;26497;52.494;7.546;2022-09-28T05:50:49;98845.63;;;14.14;70.37
40788;BME280;26497;52.494;7.546;2022-09-28T05:53:17;98842.72;;;14.21;70.14
40788;BME280;26497;52.494;7.546;2022-09-28T05:55:45;98844.28;;;14.25;70.13
40788;BME280;26497;52.494;7.546;2022-09-28T05:58:12;98839.09;;;14.23;69.95
40788;BME280;26497;52.494;7.546;2022-09-28T06:00:39;98836.28;;;14.26;69.97
40788;BME280;26497;52.494;7.546;2022-09-28T06:03:10;98843.22;;;14.29;70.12
40788;BME280;26497;52.494;7.546;2022-09-28T06:05:39;98847.47;;;14.33;70.06
40788;BME280;26497;52.494;7.546;2022-09-28T06:08:08;98842.03;;;14.36;70.14
40788;BME280;26497;52.494;7.546;2022-09-28T06:10:36;98838.16;;;14.43;69.85
40788;BME280;26497;52.494;7.546;2022-09-28T06:13:03;98848.91;;;14.40;70.21
40788;BME280;26497;52.494;7.546;2022-09-28T06:15:34;98849.72;;;14.42;70.45
40788;BME280;26497;52.494;7.546;2022-09-28T06:18:03;98843.34;;;14.47;70.39
40788;BME280;26497;52.494;7.546;2022-09-28T06:20:36;98850.97;;;14.54;70.28
40788;BME280;26497;52.494;7.546;2022-09-28T06:23:04;98849.81;;;14.60;70.34
40788;BME280;26497;52.494;7.546;2022-09-28T06:25:31;98854.72;;;14.69;70.19
40788;BME280;26497;52.494;7.546;2022-09-28T06:28:00;98856.16;;;14.77;70.18
40788;BME280;26497;52.494;7.546;2022-09-28T06:30:30;98858.53;;;14.83;69.96
40788;BME280;26497;52.494;7.546;2022-09-28T06:33:00;98863.03;;;14.81;70.14
40788;BME280;26497;52.494;7.546;2022-09-28T06:35:29;98869.34;;;14.78;70.09
40788;BME280;26497;52.494;7.546;2022-09-28T06:37:58;98868.34;;;14.81;70.16
40788;BME280;26497;52.494;7.546;2022-09-28T06:40:27;98874.34;;;14.84;70.07
40788;BME280;26497;52.494;7.546;2022-09-28T06:42:55;98876.16;;;14.84;69.94
40788;BME280;26497;52.494;7.546;2022-09-28T06:45:23;98882.19;;;14.87;69.80
40788;BME280;26497;52.494;7.546;2022-09-28T06:47:55;98879.19;;;14.95;69.93
40788;BME280;26497;52.494;7.546;2022-09-28T06:50:23;98876.28;;;15.00;69.75
40788;BME280;26497;52.494;7.546;2022-09-28T06:52:51;98889.38;;;15.04;69.97
40788;BME280;26497;52.494;7.546;2022-09-28T06:55:19;98880.97;;;15.14;70.10
40788;BME280;26497;52.494;7.546;2022-09-28T06:57:56;98886.44;;;15.28;69.58
40788;BME280;26497;52.494;7.546;2022-09-28T07:00:25;98875.97;;;15.25;69.34
40788;BME280;26497;52.494;7.546;2022-09-28T07:02:52;98886.91;;;15.19;69.16
40788;BME280;26497;52.494;7.546;2022-09-28T07:05:19;98885.00;;;15.03;69.22
40788;BME280;26497;52.494;7.546;2022-09-28T07:07:48;98888.09;;;14.94;69.43
40788;BME280;26497;52.494;7.546;2022-09-28T07:10:16;98892.59;;;14.92;69.77
40788;BME280;26497;52.494;7.546;2022-09-28T07:12:43;98897.69;;;14.97;70.01
40788;BME280;26497;52.494;7.546;2022-09-28T07:15:12;98898.13;;;15.07;70.03
40788;BME280;26497;52.494;7.546;2022-09-28T07:17:39;98898.78;;;15.12;69.71
40788;BME280;26497;52.494;7.546;2022-09-28T07:20:07;98904.88;;;15.14;69.74
40788;BME280;26497;52.494;7.546;2022-09-28T07:22:35;98913.25;;;15.24;70.14
40788;BME280;26497;52.494;7.546;2022-09-28T07:25:02;98909.56;;;15.45;69.90
40788;BME280;26497;52.494;7.546;2022-09-28T07:27:29;98908.88;;;15.59;69.56
40788;BME280;26497;52.494;7.546;2022-09-28T07:29:56;98918.25;;;15.67;69.78
40788;BME280;26497;52.494;7.546;2022-09-28T07:32:26;98919.72;;;15.91;70.01
40788;BME280;26497;52.494;7.546;2022-09-28T07:34:53;98924.44;;;16.21;70.23
40788;BME280;26497;52.494;7.546;2022-09-28T07:37:21;98926.34;;;16.53;69.92
40788;BME280;26497;52.494;7.546;2022-09-28T07:39:49;98922.72;;;16.72;69.21
40788;BME280;26497;52.494;7.546;2022-09-28T07:42:33;98928.81;;;16.90;68.37
40788;BME280;26497;52.494;7.546;2022-09-28T07:45:01;98932.00;;;17.14;68.36
40788;BME280;26497;52.494;7.546;2022-09-28T07:47:30;98943.00;;;17.24;67.55
40788;BME280;26497;52.494;7.546;2022-09-28T07:49:57;98944.38;;;17.31;66.48
40788;BME280;26497;52.494;7.546;2022-09-28T07:52:24;98944.53;;;17.28;66.01
40788;BME280;26497;52.494;7.546;2022-09-28T07:54:53;98943.66;;;17.12;65.59
40788;BME280;26497;52.494;7.546;2022-09-28T07:57:21;98946.34;;;17.12;65.44
40788;BME280;26497;52.494;7.546;2022-09-28T07:59:49;98950.22;;;17.06;65.10
40788;BME280;26497;52.494;7.546;2022-09-28T08:02:18;98948.50;;;16.87;64.34
40788;BME280;26497;52.494;7.546;2022-09-28T08:04:47;98955.44;;;16.56;64.38
40788;BME280;26497;52.494;7.546;2022-09-28T08:07:15;98950.56;;;16.31;65.04
40788;BME280;26497;52.494;7.546;2022-09-28T08:09:44;98957.28;;;16.20;65.71
40788;BME280;26497;52.494;7.546;2022-09-28T08:12:13;98951.03;;;16.39;66.17
40788;BME280;26497;52.494;7.546;2022-09-28T08:14:40;98954.09;;;16.65;65.80
40788;BME280;26497;52.494;7.546;2022-09-28T08:17:07;98962.16;;;16.81;65.38
40788;BME280;26497;52.494;7.546;2022-09-28T08:19:35;98951.31;;;17.18;65.51
40788;BME280;26497;52.494;7.546;2022-09-28T08:22:21;98961.38;;;17.61;64.94
40788;BME280;26497;52.494;7.546;2022-09-28T08:24:48;98967.25;;;18.14;64.67
40788;BME280;26497;52.494;7.546;2022-09-28T08:27:16;98964.34;;;18.93;63.63
40788;BME280;26497;52.494;7.546;2022-09-28T08:29:43;98958.22;;;19.76;60.21
40788;BME280;26497;52.494;7.546;2022-09-28T08:32:10;98963.13;;;21.02;59.33
40788;BME280;26497;52.494;7.546;2022-09-28T08:34:39;98962.44;;;22.93;59.38
40788;BME280;26497;52.494;7.546;2022-09-28T08:37:08;98963.97;;;24.83;49.51
40788;BME280;26497;52.494;7.546;2022-09-28T08:39:36;98963.50;;;25.09;43.31
40788;BME280;26497;52.494;7.546;2022-09-28T08:42:16;98966.22;;;24.35;45.01
40788;BME280;26497;52.494;7.546;2022-09-28T08:44:50;98967.22;;;23.23;46.22
40788;BME280;26497;52.494;7.546;2022-09-28T08:47:28;98972.56;;;22.06;47.69
40788;BME280;26497;52.494;7.546;2022-09-28T08:50:20;98971.81;;;20.92;48.94
40788;BME280;26497;52.494;7.546;2022-09-28T08:52:54;98979.41;;;20.60;50.05
40788;BME280;26497;52.494;7.546;2022-09-28T08:55:28;98971.25;;;21.76;47.84
40788;BME280;26497;52.494;7.546;2022-09-28T08:58:00;98979.19;;;22.96;42.85
40788;BME280;26497;52.494;7.546;2022-09-28T09:00:32;98971.53;;;24.47;41.49
40788;BME280;26497;52.494;7.546;2022-09-28T09:03:04;98968.56;;;24.50;39.61
40788;BME280;26497;52.494;7.546;2022-09-28T09:05:51;98979.94;;;24.32;39.06
40788;BME280;26497;52.494;7.546;2022-09-28T09:08:37;98973.34;;;25.20;36.55
40788;BME280;26497;52.494;7.546;2022-09-28T09:11:22;98983.88;;;24.92;36.86
40788;BME280;26497;52.494;7.546;2022-09-28T09:14:24;98985.31;;;23.99;37.44
40788;BME280;26497;52.494;7.546;2022-09-28T09:17:00;98996.41;;;23.17;38.90
40788;BME280;26497;52.494;7.546;2022-09-28T09:19:39;98999.97;;;23.29;38.72
40788;BME280;26497;52.494;7.546;2022-09-28T09:22:16;98994.56;;;23.63;37.89
40788;BME280;26497;52.494;7.546;2022-09-28T09:24:49;98990.25;;;24.48;37.57
40788;BME280;26497;52.494;7.546;2022-09-28T09:27:39;98987.88;;;25.38;35.35
40788;BME280;26497;52.494;7.546;2022-09-28T09:30:13;98987.81;;;26.30;34.05
40788;BME280;26497;52.494;7.546;2022-09-28T09:33:05;98996.34;;;27.12;33.36
40788;BME280;26497;52.494;7.546;2022-09-28T09:36:08;98993.41;;;26.96;32.21
40788;BME280;26497;52.494;7.546;2022-09-28T09:38:54;99001.75;;;26.25;31.89
40788;BME280;26497;52.494;7.546;2022-09-28T09:41:42;99004.81;;;26.79;31.87
40788;BME280;26497;52.494;7.546;2022-09-28T09:44:32;99006.41;;;26.72;32.24
40788;BME280;26497;52.494;7.546;2022-09-28T09:47:06;99009.13;;;25.53;33.75
40788;BME280;26497;52.494;7.546;2022-09-28T09:49:39;99009.03;;;24.38;35.22
40788;BME280;26497;52.494;7.546;2022-09-28T09:52:13;99018.53;;;23.20;36.42
40788;BME280;26497;52.494;7.546;2022-09-28T09:54:48;99020.84;;;23.13;37.54
40788;BME280;26497;52.494;7.546;2022-09-28T09:57:21;99017.84;;;23.96;36.38
40788;BME280;26497;52.494;7.546;2022-09-28T09:59:53;99012.31;;;25.06;35.31
40788;BME280;26497;52.494;7.546;2022-09-28T10:02:24;99019.16;;;25.72;33.90
40788;BME280;26497;52.494;7.546;2022-09-28T10:04:55;99020.25;;;25.38;34.39
40788;BME280;26497;52.494;7.546;2022-09-28T10:07:27;99020.94;;;23.80;33.76
40788;BME280;26497;52.494;7.546;2022-09-28T10:09:57;99025.00;;;22.48;36.35
40788;BME280;26497;52.494;7.546;2022-09-28T10:12:28;99018.69;;;22.60;38.12
40788;BME280;26497;52.494;7.546;2022-09-28T10:14:57;99017.16;;;23.83;37.59
40788;BME280;26497;52.494;7.546;2022-09-28T10:17:24;99012.38;;;23.86;34.82
40788;BME280;26497;52.494;7.546;2022-09-28T10:19:53;99013.41;;;23.63;36.92
40788;BME280;26497;52.494;7.546;2022-09-28T10:22:25;99013.31;;;23.97;35.73
40788;BME280;26497;52.494;7.546;2022-09-28T10:24:53;99006.66;;;25.09;33.22
40788;BME280;26497;52.494;7.546;2022-09-28T10:27:26;99010.25;;;26.40;33.30
40788;BME280;26497;52.494;7.546;2022-09-28T10:29:59;99006.69;;;26.59;30.12
40788;BME280;26497;52.494;7.546;2022-09-28T10:32:37;99012.28;;;27.53;31.34
40788;BME280;26497;52.494;7.546;2022-09-28T10:35:22;99013.22;;;26.67;30.24
40788;BME280;26497;52.494;7.546;2022-09-28T10:37:53;99014.47;;;25.74;32.73
40788;BME280;26497;52.494;7.546;2022-09-28T10:40:33;99018.19;;;26.91;30.92
40788;BME280;26497;52.494;7.546;2022-09-28T10:43:14;99015.94;;;27.62;29.66
40788;BME280;26497;52.494;7.546;2022-09-28T10:45:44;99013.38;;;27.60;29.29
40788;BME280;26497;52.494;7.546;2022-09-28T10:48:18;99018.16;;;28.22;28.61
40788;BME280;26497;52.494;7.546;2022-09-28T10:50:59;99018.63;;;27.24;27.87
40788;BME280;26497;52.494;7.546;2022-09-28T10:53:28;99024.75;;;27.26;29.75
40788;BME280;26497;52.494;7.546;2022-09-28T10:55:59;99023.72;;;26.99;28.85
40788;BME280;26497;52.494;7.546;2022-09-28T10:58:35;99019.41;;;28.00;28.41
40788;BME280;26497;52.494;7.546;2022-09-28T11:01:09;99009.00;;;29.12;27.11
40788;BME280;26497;52.494;7.546;2022-09-28T11:03:48;99018.69;;;29.93;27.11
40788;BME280;26497;52.494;7.546;2022-09-28T11:06:24;99024.75;;;30.71;25.05
40788;BME280;26497;52.494;7.546;2022-09-28T11:08:53;99028.09;;;30.40;24.66
40788;BME280;26497;52.494;7.546;2022-09-28T11:11:22;99019.78;;;30.50;23.32
40788;BME280;26497;52.494;7.546;2022-09-28T11:13:52;99022.47;;;29.57;25.05
40788;BME280;26497;52.494;7.546;2022-09-28T11:16:27;99029.97;;;28.39;27.11
40788;BME280;26497;52.494;7.546;2022-09-28T11:18:55;99028.84;;;27.40;29.01
40788;BME280;26497;52.494;7.546;2022-09-28T11:21:25;99027.75;;;26.56;29.31
40788;BME280;26497;52.494;7.546;2022-09-28T11:24:02;99023.44;;;26.04;29.68
40788;BME280;26497;52.494;7.546;2022-09-28T11:26:39;99026.38;;;25.40;31.49
40788;BME280;26497;52.494;7.546;2022-09-28T11:29:23;99029.19;;;24.98;32.83
40788;BME280;26497;52.494;7.546;2022-09-28T11:31:53;99013.16;;;24.75;33.36
40788;BME280;26497;52.494;7.546;2022-09-28T11:34:30;99022.06;;;24.76;33.96
40788;BME280;26497;52.494;7.546;2022-09-28T11:37:45;99025.72;;;24.53;33.87
40788;BME280;26497;52.494;7.546;2022-09-28T11:40:26;99032.66;;;24.13;35.33
40788;BME280;26497;52.494;7.546;2022-09-28T11:43:07;99026.81;;;23.85;35.06
40788;BME280;26497;52.494;7.546;2022-09-28T11:45:48;99042.03;;;23.41;36.42
40788;BME280;26497;52.494;7.546;2022-09-28T11:48:22;99040.78;;;23.11;36.68
40788;BME280;26497;52.494;7.546;2022-09-28T11:50:54;99047.09;;;22.87;37.26
40788;BME280;26497;52.494;7.546;2022-09-28T11:53:28;99041.69;;;22.76;37.71
40788;BME280;26497;52.494;7.546;2022-09-28T11:56:04;99046.56;;;22.71;36.94
40788;BME280;26497;52.494;7.546;2022-09-28T11:58:36;99041.25;;;22.58;37.13
40788;BME280;26497;52.494;7.546;2022-09-28T12:01:12;99048.56;;;22.44;35.95
40788;BME280;26497;52.494;7.546;2022-09-28T12:03:50;99039.31;;;22.35;36.25
40788;BME280;26497;52.494;7.546;2022-09-28T12:06:24;99054.81;;;22.07;36.03
40788;BME280;26497;52.494;7.546;2022-09-28T12:09:01;99051.09;;;21.47;36.18
40788;BME280;26497;52.494;7.546;2022-09-28T12:11:35;99048.66;;;21.31;36.76
40788;BME280;26497;52.494;7.546;2022-09-28T12:14:11;99051.03;;;21.23;38.46
40788;BME280;26497;52.494;7.546;2022-09-28T12:16:45;99052.00;;;21.09;40.23
40788;BME280;26497;52.494;7.546;2022-09-28T12:19:18;99052.88;;;20.69;38.82
40788;BME280;26497;52.494;7.546;2022-09-28T12:21:49;99053.81;;;20.42;39.27
40788;BME280;26497;52.494;7.546;2022-09-28T12:24:22;99055.59;;;20.28;40.78
40788;BME280;26497;52.494;7.546;2022-09-28T12:26:55;99049.75;;;20.09;40.68
40788;BME280;26497;52.494;7.546;2022-09-28T12:29:30;99051.50;;;19.95;41.03
40788;BME280;26497;52.494;7.546;2022-09-28T12:32:06;99044.72;;;19.89;41.16
40788;BME280;26497;52.494;7.546;2022-09-28T12:34:40;99042.56;;;20.09;42.28
40788;BME280;26497;52.494;7.546;2022-09-28T12:37:16;99041.00;;;20.73;41.45
40788;BME280;26497;52.494;7.546;2022-09-28T12:39:59;99043.63;;;21.13;39.04
40788;BME280;26497;52.494;7.546;2022-09-28T12:42:45;99037.75;;;21.84;38.69
40788;BME280;26497;52.494;7.546;2022-09-28T12:45:41;99044.94;;;22.08;37.08
40788;BME280;26497;52.494;7.546;2022-09-28T12:48:27;99045.66;;;22.94;35.35
40788;BME280;26497;52.494;7.546;2022-09-28T12:51:14;99035.88;;;23.84;31.79
40788;BME280;26497;52.494;7.546;2022-09-28T12:54:00;99033.72;;;24.97;31.65
40788;BME280;26497;52.494;7.546;2022-09-28T12:56:51;99031.16;;;25.48;30.09
40788;BME280;26497;52.494;7.546;2022-09-28T12:59:30;99033.16;;;27.33;27.65
40788;BME280;26497;52.494;7.546;2022-09-28T13:05:21;99039.03;;;28.48;25.96
40788;BME280;26497;52.494;7.546;2022-09-28T13:07:56;99031.94;;;29.96;23.91
40788;BME280;26497;52.494;7.546;2022-09-28T13:10:34;99039.00;;;30.56;22.32
40788;BME280;26497;52.494;7.546;2022-09-28T13:13:19;99037.84;;;29.91;24.28
40788;BME280;26497;52.494;7.546;2022-09-28T13:15:54;99036.13;;;30.58;23.79
40788;BME280;26497;52.494;7.546;2022-09-28T13:18:29;99037.13;;;30.82;22.52
40788;BME280;26497;52.494;7.546;2022-09-28T13:21:17;99031.53;;;30.75;22.94
40788;BME280;26497;52.494;7.546;2022-09-28T13:23:49;99030.47;;;30.26;21.61
40788;BME280;26497;52.494;7.546;2022-09-28T13:26:23;99034.50;;;28.93;23.80
40788;BME280;26497;52.494;7.546;2022-09-28T13:28:56;99047.50;;;27.05;26.16
40788;BME280;26497;52.494;7.546;2022-09-28T13:31:27;99045.94;;;26.73;27.53
40788;BME280;26497;52.494;7.546;2022-09-28T13:33:56;99043.84;;;26.38;27.65